»·PEaware :: N4657 KNYL-KOXR

N4657 :: KNYL-KOXR

FLIGHT INFORMATION

Flight Status: Arrived
Operator: Privately registered:
United States
More flights under this callsign
Pilot: Michael D. (22547)
Aircraft: PILATUS PC-12 EAGLE
(PC12)
More flights by this aircraft type
Origin: KNYL Yuma MCAS/Yuma Intl
United States
Destination: KOXR Oxnard
United States
More flights between these airports :: More routes between these airports
Route: +BZA V458 SXC V208 VTU
File this flight plan on PilotEdge
Remarks:
Altitude:
(Current/Filed)
22,000ft
Speed:
(Current/Filed)
220kts
Departed: 21-Dec-19 11:02 AM
Arrived: 21-Dec-19 12:18 PM
Distance/Time
Traveled:
248nm/1:16
Distance/Time
To Go:
Arrived

Flight Plot

Page will automatically refresh every two minutes.

Flight plan parsing failed; only flown route is shown


Map Options




Map Legend


Flown Route
Filed Route
Departure Airport
Arrival Airport
Navaid (VOR, NDB)
Fix

Horizontal Profiles

Position Reports

Time Latitude Longitude Heading Altitude Ground
Speed
21-Dec-19 10:23 32.660821 -114.609694 87 191ft 0kts
21-Dec-19 10:24 32.660821 -114.609694 87 191ft 0kts
21-Dec-19 10:25 32.660821 -114.609694 87 191ft 0kts
21-Dec-19 10:26 32.660821 -114.609694 87 191ft 0kts
21-Dec-19 10:27 32.660821 -114.609694 87 191ft 0kts
21-Dec-19 10:28 32.660821 -114.609694 87 191ft 0kts
21-Dec-19 10:29 32.660821 -114.609694 87 191ft 0kts
21-Dec-19 10:30 32.660821 -114.609694 87 191ft 0kts
21-Dec-19 10:31 32.660821 -114.609694 87 191ft 0kts
21-Dec-19 10:32 32.660821 -114.609694 87 191ft 0kts
21-Dec-19 10:33 32.660821 -114.609694 87 191ft 0kts
21-Dec-19 10:34 32.660821 -114.609694 87 191ft 0kts
21-Dec-19 10:35 32.660821 -114.609694 87 191ft 0kts
21-Dec-19 10:36 32.660821 -114.609694 87 191ft 0kts
21-Dec-19 10:37 32.660821 -114.609694 87 191ft 0kts
21-Dec-19 10:38 32.660821 -114.609694 87 191ft 0kts
21-Dec-19 10:39 32.660821 -114.609694 87 191ft 0kts
21-Dec-19 10:40 32.660821 -114.609694 87 191ft 0kts
21-Dec-19 10:42 32.660821 -114.609694 87 191ft 0kts
21-Dec-19 10:43 32.660821 -114.609694 87 191ft 0kts
21-Dec-19 10:44 32.660821 -114.609694 87 191ft 0kts
21-Dec-19 10:45 32.660821 -114.609694 87 191ft 0kts
21-Dec-19 10:46 32.660821 -114.609694 87 191ft 0kts
21-Dec-19 10:47 32.660821 -114.609694 87 191ft 0kts
21-Dec-19 10:48 32.660821 -114.609694 87 191ft 0kts
21-Dec-19 10:49 32.660821 -114.609694 87 191ft 0kts
21-Dec-19 10:50 32.660026 -114.609342 169 191ft 16kts
21-Dec-19 10:51 32.658993 -114.607648 90 189ft 14kts
21-Dec-19 10:52 32.659972 -114.605217 94 191ft 3kts
21-Dec-19 10:53 32.659970 -114.605183 93 191ft 0kts
21-Dec-19 10:54 32.659970 -114.605183 93 191ft 0kts
21-Dec-19 10:55 32.659970 -114.605183 93 191ft 0kts
21-Dec-19 10:56 32.659969 -114.605181 93 191ft 0kts
21-Dec-19 10:57 32.655490 -114.603843 176 187ft 32kts
21-Dec-19 10:58 32.652599 -114.603778 357 187ft 0kts
21-Dec-19 10:59 32.652613 -114.603779 357 187ft 0kts
21-Dec-19 11:00 32.652613 -114.603779 357 187ft 0kts
21-Dec-19 11:01 32.652613 -114.603779 357 187ft 0kts
21-Dec-19 11:02 32.667354 -114.604242 359 581ft 127kts
21-Dec-19 11:03 32.707619 -114.606355 8 2652ft 152kts
21-Dec-19 11:03 32.743469 -114.603838 5 4482ft 162kts
21-Dec-19 11:05 32.767188 -114.653685 268 7084ft 184kts
21-Dec-19 11:06 32.766061 -114.714907 266 9286ft 187kts
21-Dec-19 11:06 32.765086 -114.766062 265 11117ft 186kts
21-Dec-19 11:08 32.763724 -114.836690 264 13686ft 181kts
21-Dec-19 11:08 32.762744 -114.885817 264 15441ft 181kts
21-Dec-19 11:09 32.761521 -114.946072 263 17402ft 184kts
21-Dec-19 11:11 32.760079 -115.016799 262 19593ft 184kts
21-Dec-19 11:11 32.758997 -115.067357 262 20953ft 184kts
21-Dec-19 11:12 32.757637 -115.128267 262 22297ft 194kts
21-Dec-19 11:13 32.755982 -115.200821 263 22314ft 237kts
21-Dec-19 11:14 32.754178 -115.281643 263 22310ft 250kts
21-Dec-19 11:15 32.752264 -115.364613 263 22306ft 252kts
21-Dec-19 11:16 32.750261 -115.447976 263 22304ft 252kts
21-Dec-19 11:17 32.749456 -115.531527 266 22311ft 253kts
21-Dec-19 11:18 32.751522 -115.615034 266 22320ft 253kts
21-Dec-19 11:19 32.753620 -115.699055 266 22332ft 254kts
21-Dec-19 11:20 32.755671 -115.782943 266 22331ft 254kts
21-Dec-19 11:21 32.757668 -115.867070 266 22331ft 254kts
21-Dec-19 11:22 32.759605 -115.951181 266 22331ft 255kts
21-Dec-19 11:23 32.761618 -116.035718 270 22328ft 257kts
21-Dec-19 11:24 32.802168 -116.109570 303 22330ft 273kts
21-Dec-19 11:25 32.851316 -116.178790 303 22325ft 274kts
21-Dec-19 11:26 32.900719 -116.248075 303 22291ft 275kts
21-Dec-19 11:27 32.950009 -116.317319 303 22257ft 276kts
21-Dec-19 11:28 32.999708 -116.387255 303 22222ft 276kts
21-Dec-19 11:29 33.049084 -116.456879 303 22211ft 274kts
21-Dec-19 11:30 33.099256 -116.527826 304 21418ft 287kts
21-Dec-19 11:31 33.141163 -116.605867 277 20150ft 277kts
21-Dec-19 11:32 33.153896 -116.695708 273 18765ft 273kts
21-Dec-19 11:33 33.164922 -116.785662 272 17506ft 280kts
21-Dec-19 11:34 33.176321 -116.878831 273 16295ft 283kts
21-Dec-19 11:35 33.187591 -116.971464 272 15083ft 283kts
21-Dec-19 11:36 33.198794 -117.064514 271 13723ft 283kts
21-Dec-19 11:37 33.209721 -117.156220 271 12081ft 278kts
21-Dec-19 11:38 33.220449 -117.246931 271 12018ft 273kts
21-Dec-19 11:39 33.231008 -117.336456 271 12021ft 273kts
21-Dec-19 11:40 33.241598 -117.426271 271 12023ft 273kts
21-Dec-19 11:41 33.252575 -117.516261 271 12024ft 273kts
21-Dec-19 11:42 33.264394 -117.606031 273 12016ft 275kts
21-Dec-19 11:43 33.277933 -117.695822 273 12016ft 274kts
21-Dec-19 11:44 33.290861 -117.785580 272 12016ft 274kts
21-Dec-19 11:45 33.303038 -117.875808 272 12016ft 274kts
21-Dec-19 11:46 33.315104 -117.965787 272 12018ft 274kts
21-Dec-19 11:47 33.327091 -118.055685 272 12019ft 274kts
21-Dec-19 11:48 33.339071 -118.146044 272 12020ft 274kts
21-Dec-19 11:49 33.350939 -118.236077 272 12022ft 275kts
21-Dec-19 11:50 33.362784 -118.326464 272 12025ft 275kts
21-Dec-19 11:51 33.376968 -118.416376 292 12025ft 285kts
21-Dec-19 11:52 33.426206 -118.492828 304 12025ft 291kts
21-Dec-19 11:53 33.478164 -118.566655 305 10910ft 271kts
21-Dec-19 11:54 33.524024 -118.632356 305 9705ft 263kts
21-Dec-19 11:55 33.573262 -118.702691 306 8526ft 270kts
21-Dec-19 11:56 33.619587 -118.769144 305 8073ft 254kts
21-Dec-19 11:57 33.668803 -118.832408 313 8070ft 268kts
21-Dec-19 11:58 33.723828 -118.897866 314 8066ft 284kts
21-Dec-19 11:59 33.780511 -118.965229 316 8064ft 287kts
21-Dec-19 12:00 33.836646 -119.032239 317 7370ft 282kts
21-Dec-19 12:01 33.891269 -119.097536 318 6569ft 266kts
21-Dec-19 12:02 33.941992 -119.158325 318 6063ft 245kts
21-Dec-19 12:03 33.990743 -119.216808 317 6063ft 253kts
21-Dec-19 12:04 34.041868 -119.278274 316 6060ft 268kts
21-Dec-19 12:05 34.095386 -119.342809 315 6058ft 275kts
21-Dec-19 12:06 34.149448 -119.408115 315 6055ft 276kts
21-Dec-19 12:07 34.203760 -119.473917 314 6055ft 276kts
21-Dec-19 12:08 34.252604 -119.539565 309 4233ft 260kts
21-Dec-19 12:09 34.225892 -119.586811 146 3065ft 219kts
21-Dec-19 12:10 34.210734 -119.518255 102 3046ft 218kts
21-Dec-19 12:11 34.202002 -119.446081 87 3050ft 219kts
21-Dec-19 12:12 34.201950 -119.380242 90 1947ft 175kts
21-Dec-19 12:13 34.201684 -119.328930 90 1744ft 139kts
21-Dec-19 12:14 34.201419 -119.288555 93 1207ft 96kts
21-Dec-19 12:15 34.201095 -119.254529 89 670ft 99kts
21-Dec-19 12:16 34.200981 -119.223891 87 204ft 94kts
21-Dec-19 12:17 34.200109 -119.211691 236 33ft 0kts
21-Dec-19 12:18 34.198883 -119.206148 110 38ft 12kts
21-Dec-19 12:19 34.199038 -119.205899 2 38ft 0kts

Navigation Log

Ident Type
Flight plan parsing failed, navigation log unavailable